This is the latest recevied weather packets stored in our database for station/object EFTU. If no packets are shown the sender has not sent any weather packets the latest 10 day(s).
| Time | Temp. | Humidity | Pressure | Rain* | Wind** | Luminosity | Snow |
|---|---|---|---|---|---|---|---|
| 1777626421 | 15.56° C | 44% | 1020.9 hPa | - | - | - | - |
| 1777625222 | 15° C | 46% | 1021.1 hPa | - | - | - | - |
| 1777624022 | 15° C | 46% | 1021.2 hPa | - | - | - | - |
| 1777622824 | 14.44° C | 47% | 1021.3 hPa | - | - | - | - |
| 1777621621 | 14.44° C | 49% | 1021.4 hPa | - | - | - | - |
| 1777620421 | 13.89° C | 51% | 1021.5 hPa | - | - | - | - |
| 1777619221 | 12.78° C | 54% | 1021.7 hPa | - | - | - | - |
| 1777618021 | 12.22° C | 57% | 1021.7 hPa | - | - | - | - |
| 1777616822 | 11.67° C | 59% | 1021.7 hPa | - | - | - | - |
| 1777615621 | 10.56° C | 62% | 1021.8 hPa | - | - | - | - |
| 1777614421 | 10° C | 66% | 1021.9 hPa | - | - | - | - |
| 1777613220 | 8.89° C | 72% | 1021.9 hPa | - | - | - | - |
| 1777612021 | 7.78° C | 76% | 1022 hPa | - | - | - | - |
| 1777610821 | 6.67° C | 82% | 1022.2 hPa | - | - | - | - |
| 1777609621 | 5.56° C | 90% | 1022.2 hPa | - | - | - | - |
| 1777608421 | 3.89° C | 96% | 1022.2 hPa | - | - | - | - |
| 1777607221 | 2.22° C | 97% | 1022.4 hPa | - | - | - | - |
| 1777606021 | 1.67° C | 98% | 1022.4 hPa | - | - | - | - |
| 1777604821 | 2.22° C | 99% | 1022.5 hPa | - | - | - | - |
| 1777603622 | 1.67° C | 99% | 1022.6 hPa | - | - | - | - |
| 1777602421 | 0.56° C | 98% | 1022.9 hPa | - | - | - | - |
| 1777601220 | 1.11° C | 98% | 1022.9 hPa | - | - | - | - |
| 1777600021 | 1.11° C | 98% | 1022.8 hPa | - | - | - | - |
| 1777598821 | 3.33° C | 97% | 1022.7 hPa | - | - | - | - |
| 1777597620 | 2.78° C | 95% | 1022.8 hPa | - | - | - | - |
* Rain since midnight (hover to see other rain measurements)
** Current wind speed in m/s (hover to see current wind gust speed)